Terminal Aerodrome Forecast
Issued by NWS Melbourne, FL

Current Version | Previous Version | Text Only | Print | Product List | Glossary On
Versions: 1 2 3 4 5 6 7 8 9 10 11 12 13 14 15 16
000
FTUS42 KMLB 161500 AAA
TAFMLB
TAF AMD
KMLB 161517Z 1615/1712 01010KT P6SM OVC035
     FM161700 03016G24KT P6SM OVC040
     FM170100 05013KT P6SM VCSH BKN025
     FM170500 07012KT P6SM VCSH BKN015=

USA.gov is the U.S. government's official web portal to all federal, state and local government web resources and services.